Sackville, Canada
Current Conditions -  °F | °C
As of 8:00 PM on Sunday 23 Nov 2014 (Local Time) from CYQM Reporting Station
Overcast Overcast  
Wind Chill: 34°   Ceiling: 4500
Heat Index: 34°   Visibility: 15mi
Dew Point: 28°   Wind: 2mph
Humidity: 81%   Direction: NA
Pressure: 30.11"   Gusts: NA
Location:  45.9°N, 64.37°W
Report Text: CYQM 240000Z VRB02KT 15SM OVC045 01/M02 A3011 RMK SC8 SLP200
Loading
Personal Weather Stations






























Interactive Weather Map New forecast layout! Learn more

10-Day Weather Forecast

Advertisements
Track Severe Weather on mobile